sensor_id;sensor_type;location;lat;lon;timestamp;P1;durP1;ratioP1;P2;durP2;ratioP2
3767;SDS011;1899;49.966;7.106;2024-03-29T00:01:08;4.43;;;1.53;;
3767;SDS011;1899;49.966;7.106;2024-03-29T00:03:34;5.07;;;1.50;;
3767;SDS011;1899;49.966;7.106;2024-03-29T00:05:59;6.43;;;1.40;;
3767;SDS011;1899;49.966;7.106;2024-03-29T00:08:26;4.17;;;1.73;;
3767;SDS011;1899;49.966;7.106;2024-03-29T00:10:51;4.60;;;1.43;;
3767;SDS011;1899;49.966;7.106;2024-03-29T00:13:17;3.03;;;1.00;;
3767;SDS011;1899;49.966;7.106;2024-03-29T00:15:42;3.40;;;1.20;;
3767;SDS011;1899;49.966;7.106;2024-03-29T00:18:10;5.23;;;1.60;;
3767;SDS011;1899;49.966;7.106;2024-03-29T00:20:35;3.83;;;1.40;;
3767;SDS011;1899;49.966;7.106;2024-03-29T00:23:01;5.17;;;1.10;;
3767;SDS011;1899;49.966;7.106;2024-03-29T00:25:26;5.33;;;1.10;;
3767;SDS011;1899;49.966;7.106;2024-03-29T00:27:52;3.73;;;1.17;;
3767;SDS011;1899;49.966;7.106;2024-03-29T00:30:17;4.13;;;1.10;;
3767;SDS011;1899;49.966;7.106;2024-03-29T00:32:42;6.40;;;1.40;;
3767;SDS011;1899;49.966;7.106;2024-03-29T00:35:07;4.03;;;1.23;;
3767;SDS011;1899;49.966;7.106;2024-03-29T00:37:33;4.67;;;1.30;;
3767;SDS011;1899;49.966;7.106;2024-03-29T00:39:59;6.43;;;1.57;;
3767;SDS011;1899;49.966;7.106;2024-03-29T00:42:24;4.83;;;1.30;;
3767;SDS011;1899;49.966;7.106;2024-03-29T00:44:50;4.20;;;1.07;;
3767;SDS011;1899;49.966;7.106;2024-03-29T00:47:15;4.67;;;1.40;;
3767;SDS011;1899;49.966;7.106;2024-03-29T00:49:40;5.10;;;1.20;;
3767;SDS011;1899;49.966;7.106;2024-03-29T00:52:06;7.57;;;1.20;;
3767;SDS011;1899;49.966;7.106;2024-03-29T00:54:32;5.27;;;1.23;;
3767;SDS011;1899;49.966;7.106;2024-03-29T00:56:57;5.67;;;1.30;;
3767;SDS011;1899;49.966;7.106;2024-03-29T00:59:22;3.07;;;0.97;;
3767;SDS011;1899;49.966;7.106;2024-03-29T01:01:48;5.23;;;1.90;;
3767;SDS011;1899;49.966;7.106;2024-03-29T01:04:14;3.60;;;1.20;;
3767;SDS011;1899;49.966;7.106;2024-03-29T01:06:39;4.40;;;1.17;;
3767;SDS011;1899;49.966;7.106;2024-03-29T01:09:08;4.57;;;1.20;;
3767;SDS011;1899;49.966;7.106;2024-03-29T01:11:36;4.47;;;1.20;;
3767;SDS011;1899;49.966;7.106;2024-03-29T01:14:02;5.07;;;1.50;;
3767;SDS011;1899;49.966;7.106;2024-03-29T01:16:28;5.43;;;1.27;;
3767;SDS011;1899;49.966;7.106;2024-03-29T01:18:53;4.27;;;1.40;;
3767;SDS011;1899;49.966;7.106;2024-03-29T01:21:18;4.10;;;1.20;;
3767;SDS011;1899;49.966;7.106;2024-03-29T01:23:44;4.53;;;1.70;;
3767;SDS011;1899;49.966;7.106;2024-03-29T01:26:09;5.53;;;1.30;;
3767;SDS011;1899;49.966;7.106;2024-03-29T01:28:37;5.30;;;1.30;;
3767;SDS011;1899;49.966;7.106;2024-03-29T01:31:02;6.37;;;1.40;;
3767;SDS011;1899;49.966;7.106;2024-03-29T01:33:28;3.80;;;1.20;;
3767;SDS011;1899;49.966;7.106;2024-03-29T01:35:57;5.90;;;1.10;;
3767;SDS011;1899;49.966;7.106;2024-03-29T01:38:22;3.40;;;1.00;;
3767;SDS011;1899;49.966;7.106;2024-03-29T01:40:48;4.20;;;1.57;;
3767;SDS011;1899;49.966;7.106;2024-03-29T01:43:13;3.17;;;0.90;;
3767;SDS011;1899;49.966;7.106;2024-03-29T01:45:38;4.37;;;1.07;;
3767;SDS011;1899;49.966;7.106;2024-03-29T01:48:08;5.90;;;1.60;;
3767;SDS011;1899;49.966;7.106;2024-03-29T01:50:34;11.80;;;1.40;;
3767;SDS011;1899;49.966;7.106;2024-03-29T01:52:59;3.37;;;1.07;;
3767;SDS011;1899;49.966;7.106;2024-03-29T01:55:25;5.50;;;1.80;;
3767;SDS011;1899;49.966;7.106;2024-03-29T01:57:50;3.43;;;1.30;;
3767;SDS011;1899;49.966;7.106;2024-03-29T02:00:16;8.10;;;1.53;;
3767;SDS011;1899;49.966;7.106;2024-03-29T02:02:41;5.00;;;1.57;;
3767;SDS011;1899;49.966;7.106;2024-03-29T02:05:07;6.30;;;1.60;;
3767;SDS011;1899;49.966;7.106;2024-03-29T02:07:32;5.57;;;1.70;;
3767;SDS011;1899;49.966;7.106;2024-03-29T02:09:58;6.30;;;1.83;;
3767;SDS011;1899;49.966;7.106;2024-03-29T02:12:24;4.43;;;1.80;;
3767;SDS011;1899;49.966;7.106;2024-03-29T02:14:49;4.33;;;1.30;;
3767;SDS011;1899;49.966;7.106;2024-03-29T02:17:15;4.93;;;1.77;;
3767;SDS011;1899;49.966;7.106;2024-03-29T02:19:40;8.67;;;1.83;;
3767;SDS011;1899;49.966;7.106;2024-03-29T02:22:05;7.90;;;2.33;;
3767;SDS011;1899;49.966;7.106;2024-03-29T02:24:32;6.20;;;1.80;;
3767;SDS011;1899;49.966;7.106;2024-03-29T02:26:58;3.50;;;1.30;;
3767;SDS011;1899;49.966;7.106;2024-03-29T02:29:24;3.70;;;1.53;;
3767;SDS011;1899;49.966;7.106;2024-03-29T02:31:49;4.30;;;1.33;;
3767;SDS011;1899;49.966;7.106;2024-03-29T02:34:15;5.10;;;1.50;;
3767;SDS011;1899;49.966;7.106;2024-03-29T02:36:40;3.63;;;1.40;;
3767;SDS011;1899;49.966;7.106;2024-03-29T02:39:08;3.87;;;1.30;;
3767;SDS011;1899;49.966;7.106;2024-03-29T02:41:33;3.63;;;1.30;;
3767;SDS011;1899;49.966;7.106;2024-03-29T02:43:58;3.87;;;1.63;;
3767;SDS011;1899;49.966;7.106;2024-03-29T02:46:23;4.50;;;2.07;;
3767;SDS011;1899;49.966;7.106;2024-03-29T02:48:49;5.50;;;1.50;;
3767;SDS011;1899;49.966;7.106;2024-03-29T02:51:14;8.90;;;2.37;;
3767;SDS011;1899;49.966;7.106;2024-03-29T02:53:39;4.30;;;1.80;;
3767;SDS011;1899;49.966;7.106;2024-03-29T02:56:05;4.00;;;1.30;;
3767;SDS011;1899;49.966;7.106;2024-03-29T02:58:32;5.93;;;1.67;;
3767;SDS011;1899;49.966;7.106;2024-03-29T03:00:57;4.30;;;1.50;;
3767;SDS011;1899;49.966;7.106;2024-03-29T03:03:29;7.03;;;1.80;;
3767;SDS011;1899;49.966;7.106;2024-03-29T03:05:55;5.37;;;1.50;;
3767;SDS011;1899;49.966;7.106;2024-03-29T03:08:20;3.73;;;1.57;;
3767;SDS011;1899;49.966;7.106;2024-03-29T03:11:04;4.40;;;1.50;;
3767;SDS011;1899;49.966;7.106;2024-03-29T03:13:30;3.90;;;1.37;;
3767;SDS011;1899;49.966;7.106;2024-03-29T03:15:55;5.87;;;1.60;;
3767;SDS011;1899;49.966;7.106;2024-03-29T03:18:21;3.47;;;1.23;;
3767;SDS011;1899;49.966;7.106;2024-03-29T03:23:17;3.50;;;1.50;;
3767;SDS011;1899;49.966;7.106;2024-03-29T03:25:43;6.23;;;1.80;;
3767;SDS011;1899;49.966;7.106;2024-03-29T03:28:08;4.07;;;1.70;;
3767;SDS011;1899;49.966;7.106;2024-03-29T03:30:37;4.20;;;1.90;;
3767;SDS011;1899;49.966;7.106;2024-03-29T03:33:02;4.60;;;1.70;;
3767;SDS011;1899;49.966;7.106;2024-03-29T03:35:28;5.23;;;1.23;;
3767;SDS011;1899;49.966;7.106;2024-03-29T03:37:53;4.23;;;1.60;;
3767;SDS011;1899;49.966;7.106;2024-03-29T03:40:18;4.87;;;1.60;;
3767;SDS011;1899;49.966;7.106;2024-03-29T03:42:44;6.43;;;1.70;;
3767;SDS011;1899;49.966;7.106;2024-03-29T03:45:10;4.17;;;1.47;;
3767;SDS011;1899;49.966;7.106;2024-03-29T03:47:35;4.10;;;1.30;;
3767;SDS011;1899;49.966;7.106;2024-03-29T03:50:00;4.93;;;1.43;;
3767;SDS011;1899;49.966;7.106;2024-03-29T03:52:25;3.53;;;1.20;;
3767;SDS011;1899;49.966;7.106;2024-03-29T03:54:51;3.87;;;1.47;;
3767;SDS011;1899;49.966;7.106;2024-03-29T03:57:16;3.20;;;1.03;;
3767;SDS011;1899;49.966;7.106;2024-03-29T03:59:41;4.53;;;1.10;;
3767;SDS011;1899;49.966;7.106;2024-03-29T04:02:06;4.30;;;1.50;;
3767;SDS011;1899;49.966;7.106;2024-03-29T04:04:32;6.97;;;1.20;;
3767;SDS011;1899;49.966;7.106;2024-03-29T04:06:57;4.10;;;1.50;;
3767;SDS011;1899;49.966;7.106;2024-03-29T04:09:22;3.17;;;1.17;;
3767;SDS011;1899;49.966;7.106;2024-03-29T04:11:47;3.90;;;1.57;;
3767;SDS011;1899;49.966;7.106;2024-03-29T04:14:13;3.70;;;1.10;;
3767;SDS011;1899;49.966;7.106;2024-03-29T04:16:38;3.77;;;1.23;;
3767;SDS011;1899;49.966;7.106;2024-03-29T04:19:03;3.00;;;1.10;;
3767;SDS011;1899;49.966;7.106;2024-03-29T04:21:29;2.93;;;1.10;;
3767;SDS011;1899;49.966;7.106;2024-03-29T04:23:54;4.90;;;1.47;;
3767;SDS011;1899;49.966;7.106;2024-03-29T04:26:19;8.43;;;1.33;;
3767;SDS011;1899;49.966;7.106;2024-03-29T04:28:44;4.13;;;1.30;;
3767;SDS011;1899;49.966;7.106;2024-03-29T04:31:10;3.60;;;1.97;;
3767;SDS011;1899;49.966;7.106;2024-03-29T04:33:35;4.20;;;1.10;;
3767;SDS011;1899;49.966;7.106;2024-03-29T04:36:02;3.00;;;1.20;;
3767;SDS011;1899;49.966;7.106;2024-03-29T04:38:28;5.27;;;1.13;;
3767;SDS011;1899;49.966;7.106;2024-03-29T04:40:54;2.90;;;1.10;;
3767;SDS011;1899;49.966;7.106;2024-03-29T04:43:21;4.10;;;1.57;;
3767;SDS011;1899;49.966;7.106;2024-03-29T04:45:46;3.90;;;1.30;;
3767;SDS011;1899;49.966;7.106;2024-03-29T04:48:12;5.63;;;1.30;;
3767;SDS011;1899;49.966;7.106;2024-03-29T04:50:37;3.27;;;1.13;;
3767;SDS011;1899;49.966;7.106;2024-03-29T04:53:03;3.93;;;1.37;;
3767;SDS011;1899;49.966;7.106;2024-03-29T04:55:28;3.40;;;1.50;;
3767;SDS011;1899;49.966;7.106;2024-03-29T04:57:53;3.73;;;1.50;;
3767;SDS011;1899;49.966;7.106;2024-03-29T05:00:19;5.00;;;1.20;;
3767;SDS011;1899;49.966;7.106;2024-03-29T05:02:44;3.77;;;1.20;;
3767;SDS011;1899;49.966;7.106;2024-03-29T05:05:10;6.53;;;1.60;;
3767;SDS011;1899;49.966;7.106;2024-03-29T05:07:35;7.80;;;1.43;;
3767;SDS011;1899;49.966;7.106;2024-03-29T05:10:00;4.53;;;1.30;;
3767;SDS011;1899;49.966;7.106;2024-03-29T05:12:25;7.00;;;1.47;;
3767;SDS011;1899;49.966;7.106;2024-03-29T05:14:51;5.37;;;1.47;;
3767;SDS011;1899;49.966;7.106;2024-03-29T05:17:16;3.87;;;1.50;;
3767;SDS011;1899;49.966;7.106;2024-03-29T05:19:42;4.10;;;1.80;;
3767;SDS011;1899;49.966;7.106;2024-03-29T05:22:08;5.43;;;1.60;;
3767;SDS011;1899;49.966;7.106;2024-03-29T05:24:33;4.60;;;2.27;;
3767;SDS011;1899;49.966;7.106;2024-03-29T05:26:58;3.80;;;1.57;;
3767;SDS011;1899;49.966;7.106;2024-03-29T05:29:24;4.70;;;1.27;;
3767;SDS011;1899;49.966;7.106;2024-03-29T05:31:49;5.10;;;1.20;;
3767;SDS011;1899;49.966;7.106;2024-03-29T05:34:14;7.10;;;1.90;;
3767;SDS011;1899;49.966;7.106;2024-03-29T05:36:39;3.27;;;1.40;;
3767;SDS011;1899;49.966;7.106;2024-03-29T05:39:05;3.40;;;1.57;;
3767;SDS011;1899;49.966;7.106;2024-03-29T05:41:30;5.83;;;2.20;;
3767;SDS011;1899;49.966;7.106;2024-03-29T05:43:56;5.70;;;1.60;;
3767;SDS011;1899;49.966;7.106;2024-03-29T05:46:22;6.07;;;1.70;;
3767;SDS011;1899;49.966;7.106;2024-03-29T05:48:47;6.20;;;2.03;;
3767;SDS011;1899;49.966;7.106;2024-03-29T05:51:12;4.43;;;2.07;;
3767;SDS011;1899;49.966;7.106;2024-03-29T05:53:38;4.27;;;1.50;;
3767;SDS011;1899;49.966;7.106;2024-03-29T05:56:03;2.93;;;1.50;;
3767;SDS011;1899;49.966;7.106;2024-03-29T05:58:28;3.40;;;1.60;;
3767;SDS011;1899;49.966;7.106;2024-03-29T06:00:54;4.07;;;2.00;;
3767;SDS011;1899;49.966;7.106;2024-03-29T06:03:19;4.93;;;2.00;;
3767;SDS011;1899;49.966;7.106;2024-03-29T06:05:44;3.70;;;1.70;;
3767;SDS011;1899;49.966;7.106;2024-03-29T06:08:09;5.50;;;2.70;;
3767;SDS011;1899;49.966;7.106;2024-03-29T06:10:35;4.37;;;1.57;;
3767;SDS011;1899;49.966;7.106;2024-03-29T06:13:00;4.50;;;2.20;;
3767;SDS011;1899;49.966;7.106;2024-03-29T06:15:44;4.13;;;1.87;;
3767;SDS011;1899;49.966;7.106;2024-03-29T06:18:27;3.50;;;1.60;;
3767;SDS011;1899;49.966;7.106;2024-03-29T06:20:53;4.03;;;2.13;;
3767;SDS011;1899;49.966;7.106;2024-03-29T06:23:18;5.20;;;2.17;;
3767;SDS011;1899;49.966;7.106;2024-03-29T06:25:44;4.50;;;2.20;;
3767;SDS011;1899;49.966;7.106;2024-03-29T06:28:09;5.30;;;2.17;;
3767;SDS011;1899;49.966;7.106;2024-03-29T06:30:34;5.40;;;2.40;;
3767;SDS011;1899;49.966;7.106;2024-03-29T06:32:59;10.63;;;2.60;;
3767;SDS011;1899;49.966;7.106;2024-03-29T06:35:27;4.43;;;2.00;;
3767;SDS011;1899;49.966;7.106;2024-03-29T06:37:53;5.27;;;2.40;;
3767;SDS011;1899;49.966;7.106;2024-03-29T06:40:18;4.47;;;2.40;;
3767;SDS011;1899;49.966;7.106;2024-03-29T06:42:43;6.40;;;2.57;;
3767;SDS011;1899;49.966;7.106;2024-03-29T06:45:08;6.00;;;2.33;;
3767;SDS011;1899;49.966;7.106;2024-03-29T06:47:35;5.60;;;2.47;;
3767;SDS011;1899;49.966;7.106;2024-03-29T06:50:00;4.50;;;2.50;;
3767;SDS011;1899;49.966;7.106;2024-03-29T06:52:25;3.50;;;2.00;;
3767;SDS011;1899;49.966;7.106;2024-03-29T06:54:51;5.30;;;2.13;;
3767;SDS011;1899;49.966;7.106;2024-03-29T06:57:16;6.20;;;2.40;;
3767;SDS011;1899;49.966;7.106;2024-03-29T06:59:46;6.23;;;2.67;;
3767;SDS011;1899;49.966;7.106;2024-03-29T07:02:11;4.67;;;2.00;;
3767;SDS011;1899;49.966;7.106;2024-03-29T07:04:36;5.73;;;2.47;;
3767;SDS011;1899;49.966;7.106;2024-03-29T07:07:02;4.27;;;2.17;;
3767;SDS011;1899;49.966;7.106;2024-03-29T07:09:27;3.27;;;2.07;;
3767;SDS011;1899;49.966;7.106;2024-03-29T07:11:52;5.33;;;2.37;;
3767;SDS011;1899;49.966;7.106;2024-03-29T07:14:19;6.83;;;2.10;;
3767;SDS011;1899;49.966;7.106;2024-03-29T07:16:45;4.50;;;2.10;;
3767;SDS011;1899;49.966;7.106;2024-03-29T07:19:11;4.13;;;2.63;;
3767;SDS011;1899;49.966;7.106;2024-03-29T07:21:42;4.73;;;2.40;;
3767;SDS011;1899;49.966;7.106;2024-03-29T07:24:07;5.43;;;2.03;;
3767;SDS011;1899;49.966;7.106;2024-03-29T07:26:33;4.80;;;3.10;;
3767;SDS011;1899;49.966;7.106;2024-03-29T07:28:58;3.83;;;2.33;;
3767;SDS011;1899;49.966;7.106;2024-03-29T07:31:24;4.37;;;2.37;;
3767;SDS011;1899;49.966;7.106;2024-03-29T07:33:49;5.13;;;2.00;;
3767;SDS011;1899;49.966;7.106;2024-03-29T07:36:14;4.90;;;2.20;;
3767;SDS011;1899;49.966;7.106;2024-03-29T07:38:41;4.60;;;2.90;;
3767;SDS011;1899;49.966;7.106;2024-03-29T07:41:07;5.20;;;3.30;;
3767;SDS011;1899;49.966;7.106;2024-03-29T07:43:40;4.50;;;2.30;;
3767;SDS011;1899;49.966;7.106;2024-03-29T07:46:06;6.70;;;2.60;;
3767;SDS011;1899;49.966;7.106;2024-03-29T07:48:34;5.50;;;3.17;;
3767;SDS011;1899;49.966;7.106;2024-03-29T07:50:59;7.13;;;3.30;;
3767;SDS011;1899;49.966;7.106;2024-03-29T07:53:24;4.90;;;2.30;;
3767;SDS011;1899;49.966;7.106;2024-03-29T07:55:50;5.17;;;2.80;;
3767;SDS011;1899;49.966;7.106;2024-03-29T07:58:15;4.40;;;3.17;;
3767;SDS011;1899;49.966;7.106;2024-03-29T08:00:42;5.67;;;3.13;;
3767;SDS011;1899;49.966;7.106;2024-03-29T08:03:07;5.00;;;2.63;;
3767;SDS011;1899;49.966;7.106;2024-03-29T08:05:33;3.70;;;2.17;;
3767;SDS011;1899;49.966;7.106;2024-03-29T08:07:58;5.90;;;3.10;;
3767;SDS011;1899;49.966;7.106;2024-03-29T08:10:24;5.20;;;3.50;;
3767;SDS011;1899;49.966;7.106;2024-03-29T08:12:49;6.87;;;4.37;;
3767;SDS011;1899;49.966;7.106;2024-03-29T08:15:14;5.20;;;3.00;;
3767;SDS011;1899;49.966;7.106;2024-03-29T08:17:39;5.83;;;3.83;;
3767;SDS011;1899;49.966;7.106;2024-03-29T08:20:05;6.97;;;3.73;;
3767;SDS011;1899;49.966;7.106;2024-03-29T08:22:30;7.57;;;3.90;;
3767;SDS011;1899;49.966;7.106;2024-03-29T08:24:58;4.67;;;3.07;;
3767;SDS011;1899;49.966;7.106;2024-03-29T08:27:23;5.50;;;3.90;;
3767;SDS011;1899;49.966;7.106;2024-03-29T08:29:49;6.40;;;3.47;;
3767;SDS011;1899;49.966;7.106;2024-03-29T08:32:15;4.70;;;2.47;;
3767;SDS011;1899;49.966;7.106;2024-03-29T08:34:41;5.57;;;2.50;;
3767;SDS011;1899;49.966;7.106;2024-03-29T08:37:06;4.70;;;2.53;;
3767;SDS011;1899;49.966;7.106;2024-03-29T08:39:34;4.43;;;2.30;;
3767;SDS011;1899;49.966;7.106;2024-03-29T08:42:00;4.30;;;2.23;;
3767;SDS011;1899;49.966;7.106;2024-03-29T08:44:30;4.33;;;2.63;;
3767;SDS011;1899;49.966;7.106;2024-03-29T08:46:55;6.03;;;2.97;;
3767;SDS011;1899;49.966;7.106;2024-03-29T08:49:22;5.90;;;2.70;;
3767;SDS011;1899;49.966;7.106;2024-03-29T08:51:47;5.10;;;2.60;;
3767;SDS011;1899;49.966;7.106;2024-03-29T08:54:12;5.33;;;2.70;;
3767;SDS011;1899;49.966;7.106;2024-03-29T08:59:28;5.40;;;2.87;;
3767;SDS011;1899;49.966;7.106;2024-03-29T09:01:55;5.30;;;2.60;;
3767;SDS011;1899;49.966;7.106;2024-03-29T09:04:28;4.33;;;2.20;;
3767;SDS011;1899;49.966;7.106;2024-03-29T09:06:53;4.47;;;2.07;;
3767;SDS011;1899;49.966;7.106;2024-03-29T09:09:19;4.90;;;2.60;;
3767;SDS011;1899;49.966;7.106;2024-03-29T09:11:44;4.10;;;2.50;;
3767;SDS011;1899;49.966;7.106;2024-03-29T09:14:09;6.00;;;3.00;;
3767;SDS011;1899;49.966;7.106;2024-03-29T09:16:35;4.53;;;1.90;;
3767;SDS011;1899;49.966;7.106;2024-03-29T09:19:00;4.27;;;1.93;;
3767;SDS011;1899;49.966;7.106;2024-03-29T09:21:36;4.70;;;1.70;;
3767;SDS011;1899;49.966;7.106;2024-03-29T09:24:01;3.17;;;1.40;;
3767;SDS011;1899;49.966;7.106;2024-03-29T09:26:27;3.40;;;1.57;;
3767;SDS011;1899;49.966;7.106;2024-03-29T09:28:52;3.97;;;1.53;;
3767;SDS011;1899;49.966;7.106;2024-03-29T09:31:18;2.73;;;1.30;;
3767;SDS011;1899;49.966;7.106;2024-03-29T09:33:43;5.03;;;2.33;;
3767;SDS011;1899;49.966;7.106;2024-03-29T09:36:08;3.53;;;1.53;;
3767;SDS011;1899;49.966;7.106;2024-03-29T09:38:36;5.10;;;2.17;;
3767;SDS011;1899;49.966;7.106;2024-03-29T09:43:26;4.30;;;2.00;;
3767;SDS011;1899;49.966;7.106;2024-03-29T09:45:52;4.77;;;2.10;;
3767;SDS011;1899;49.966;7.106;2024-03-29T09:48:19;4.90;;;2.07;;
3767;SDS011;1899;49.966;7.106;2024-03-29T09:50:45;4.57;;;1.90;;
3767;SDS011;1899;49.966;7.106;2024-03-29T09:53:11;5.90;;;2.23;;
3767;SDS011;1899;49.966;7.106;2024-03-29T09:55:36;4.57;;;2.40;;
3767;SDS011;1899;49.966;7.106;2024-03-29T09:58:02;5.00;;;2.10;;
3767;SDS011;1899;49.966;7.106;2024-03-29T10:00:28;4.73;;;2.63;;
3767;SDS011;1899;49.966;7.106;2024-03-29T10:02:55;5.10;;;2.80;;
3767;SDS011;1899;49.966;7.106;2024-03-29T10:05:21;5.03;;;2.90;;
3767;SDS011;1899;49.966;7.106;2024-03-29T10:07:47;5.30;;;2.53;;
3767;SDS011;1899;49.966;7.106;2024-03-29T10:10:12;5.23;;;2.60;;
3767;SDS011;1899;49.966;7.106;2024-03-29T10:12:38;5.37;;;2.70;;
3767;SDS011;1899;49.966;7.106;2024-03-29T10:15:03;3.87;;;2.00;;
3767;SDS011;1899;49.966;7.106;2024-03-29T10:17:36;3.70;;;2.23;;
3767;SDS011;1899;49.966;7.106;2024-03-29T10:20:03;4.30;;;2.30;;
3767;SDS011;1899;49.966;7.106;2024-03-29T10:22:29;3.63;;;1.97;;
3767;SDS011;1899;49.966;7.106;2024-03-29T10:24:56;3.70;;;2.23;;
3767;SDS011;1899;49.966;7.106;2024-03-29T10:27:24;3.60;;;1.80;;
3767;SDS011;1899;49.966;7.106;2024-03-29T10:29:51;4.13;;;2.10;;
3767;SDS011;1899;49.966;7.106;2024-03-29T10:32:17;4.50;;;2.10;;
3767;SDS011;1899;49.966;7.106;2024-03-29T10:34:42;4.30;;;1.87;;
3767;SDS011;1899;49.966;7.106;2024-03-29T10:37:12;3.90;;;2.10;;
3767;SDS011;1899;49.966;7.106;2024-03-29T10:39:37;3.87;;;2.13;;
3767;SDS011;1899;49.966;7.106;2024-03-29T10:42:07;7.20;;;2.67;;
3767;SDS011;1899;49.966;7.106;2024-03-29T10:44:34;5.97;;;2.30;;
3767;SDS011;1899;49.966;7.106;2024-03-29T10:47:00;3.53;;;1.90;;
3767;SDS011;1899;49.966;7.106;2024-03-29T10:49:26;3.23;;;2.10;;
3767;SDS011;1899;49.966;7.106;2024-03-29T10:51:51;6.23;;;2.10;;
3767;SDS011;1899;49.966;7.106;2024-03-29T10:54:18;3.33;;;1.90;;
3767;SDS011;1899;49.966;7.106;2024-03-29T10:56:45;4.70;;;2.03;;
3767;SDS011;1899;49.966;7.106;2024-03-29T10:59:12;3.37;;;1.90;;
3767;SDS011;1899;49.966;7.106;2024-03-29T11:01:43;3.70;;;2.40;;
3767;SDS011;1899;49.966;7.106;2024-03-29T11:04:12;4.07;;;2.20;;
3767;SDS011;1899;49.966;7.106;2024-03-29T11:06:38;5.50;;;2.63;;
3767;SDS011;1899;49.966;7.106;2024-03-29T11:09:06;3.77;;;2.03;;
3767;SDS011;1899;49.966;7.106;2024-03-29T11:11:33;4.70;;;1.97;;
3767;SDS011;1899;49.966;7.106;2024-03-29T11:14:07;6.27;;;2.20;;
3767;SDS011;1899;49.966;7.106;2024-03-29T11:16:34;6.37;;;2.77;;
3767;SDS011;1899;49.966;7.106;2024-03-29T11:18:59;5.27;;;3.10;;
3767;SDS011;1899;49.966;7.106;2024-03-29T11:21:29;5.00;;;2.47;;
3767;SDS011;1899;49.966;7.106;2024-03-29T11:23:56;6.60;;;3.13;;
3767;SDS011;1899;49.966;7.106;2024-03-29T11:26:22;9.10;;;2.73;;
3767;SDS011;1899;49.966;7.106;2024-03-29T11:28:51;4.90;;;2.87;;
3767;SDS011;1899;49.966;7.106;2024-03-29T11:31:17;4.67;;;3.00;;
3767;SDS011;1899;49.966;7.106;2024-03-29T11:36:16;4.80;;;3.13;;
3767;SDS011;1899;49.966;7.106;2024-03-29T11:38:42;4.73;;;2.73;;
3767;SDS011;1899;49.966;7.106;2024-03-29T11:41:11;5.03;;;3.40;;
3767;SDS011;1899;49.966;7.106;2024-03-29T11:43:37;4.97;;;3.40;;
3767;SDS011;1899;49.966;7.106;2024-03-29T11:46:05;5.83;;;3.00;;
3767;SDS011;1899;49.966;7.106;2024-03-29T11:48:30;6.70;;;4.03;;
3767;SDS011;1899;49.966;7.106;2024-03-29T11:50:59;11.37;;;3.00;;
3767;SDS011;1899;49.966;7.106;2024-03-29T11:53:24;3.80;;;2.13;;
3767;SDS011;1899;49.966;7.106;2024-03-29T11:55:50;3.97;;;2.30;;
3767;SDS011;1899;49.966;7.106;2024-03-29T11:58:19;4.30;;;2.20;;
3767;SDS011;1899;49.966;7.106;2024-03-29T12:00:45;4.40;;;2.13;;
3767;SDS011;1899;49.966;7.106;2024-03-29T12:03:12;6.87;;;1.80;;
3767;SDS011;1899;49.966;7.106;2024-03-29T12:05:38;2.80;;;1.23;;
3767;SDS011;1899;49.966;7.106;2024-03-29T12:08:03;4.23;;;1.50;;
3767;SDS011;1899;49.966;7.106;2024-03-29T12:10:29;3.40;;;1.60;;
3767;SDS011;1899;49.966;7.106;2024-03-29T12:12:58;4.03;;;1.47;;
3767;SDS011;1899;49.966;7.106;2024-03-29T12:15:23;6.63;;;2.13;;
3767;SDS011;1899;49.966;7.106;2024-03-29T12:17:53;3.37;;;1.87;;
3767;SDS011;1899;49.966;7.106;2024-03-29T12:20:18;3.13;;;1.40;;
3767;SDS011;1899;49.966;7.106;2024-03-29T12:22:44;4.50;;;1.97;;
3767;SDS011;1899;49.966;7.106;2024-03-29T12:25:09;4.13;;;1.50;;
3767;SDS011;1899;49.966;7.106;2024-03-29T12:27:34;3.20;;;1.73;;
3767;SDS011;1899;49.966;7.106;2024-03-29T12:30:00;3.57;;;1.60;;
3767;SDS011;1899;49.966;7.106;2024-03-29T12:32:25;3.27;;;1.70;;
3767;SDS011;1899;49.966;7.106;2024-03-29T12:34:51;3.90;;;1.27;;
3767;SDS011;1899;49.966;7.106;2024-03-29T12:37:16;3.00;;;1.37;;
3767;SDS011;1899;49.966;7.106;2024-03-29T12:39:41;4.67;;;1.30;;
3767;SDS011;1899;49.966;7.106;2024-03-29T12:42:07;3.40;;;1.30;;
3767;SDS011;1899;49.966;7.106;2024-03-29T12:44:32;5.40;;;1.30;;
3767;SDS011;1899;49.966;7.106;2024-03-29T12:46:59;2.80;;;1.40;;
3767;SDS011;1899;49.966;7.106;2024-03-29T12:49:24;8.67;;;1.60;;
3767;SDS011;1899;49.966;7.106;2024-03-29T12:51:50;3.17;;;1.60;;
3767;SDS011;1899;49.966;7.106;2024-03-29T12:54:16;3.33;;;1.20;;
3767;SDS011;1899;49.966;7.106;2024-03-29T12:56:43;4.13;;;1.53;;
3767;SDS011;1899;49.966;7.106;2024-03-29T12:59:08;3.70;;;1.50;;
3767;SDS011;1899;49.966;7.106;2024-03-29T13:01:34;3.47;;;0.90;;
3767;SDS011;1899;49.966;7.106;2024-03-29T13:03:59;3.10;;;1.20;;
3767;SDS011;1899;49.966;7.106;2024-03-29T13:06:24;4.37;;;1.50;;
3767;SDS011;1899;49.966;7.106;2024-03-29T13:08:50;3.70;;;1.43;;
3767;SDS011;1899;49.966;7.106;2024-03-29T13:11:16;3.60;;;1.20;;
3767;SDS011;1899;49.966;7.106;2024-03-29T13:13:41;4.07;;;1.20;;
3767;SDS011;1899;49.966;7.106;2024-03-29T13:16:06;3.20;;;1.50;;
3767;SDS011;1899;49.966;7.106;2024-03-29T13:18:32;3.93;;;1.17;;
3767;SDS011;1899;49.966;7.106;2024-03-29T13:20:57;3.40;;;1.30;;
3767;SDS011;1899;49.966;7.106;2024-03-29T13:23:26;3.00;;;1.03;;
3767;SDS011;1899;49.966;7.106;2024-03-29T13:25:52;5.13;;;1.40;;
3767;SDS011;1899;49.966;7.106;2024-03-29T13:28:22;2.73;;;1.17;;
3767;SDS011;1899;49.966;7.106;2024-03-29T13:30:47;3.43;;;1.10;;
3767;SDS011;1899;49.966;7.106;2024-03-29T13:33:15;2.60;;;0.80;;
3767;SDS011;1899;49.966;7.106;2024-03-29T13:35:42;2.53;;;0.80;;
3767;SDS011;1899;49.966;7.106;2024-03-29T13:38:07;2.83;;;0.80;;
3767;SDS011;1899;49.966;7.106;2024-03-29T13:40:32;2.90;;;0.80;;
3767;SDS011;1899;49.966;7.106;2024-03-29T13:42:59;3.07;;;0.90;;
3767;SDS011;1899;49.966;7.106;2024-03-29T13:45:24;2.83;;;0.80;;
3767;SDS011;1899;49.966;7.106;2024-03-29T13:47:53;2.83;;;0.70;;
3767;SDS011;1899;49.966;7.106;2024-03-29T13:50:18;3.37;;;0.60;;
3767;SDS011;1899;49.966;7.106;2024-03-29T13:52:44;2.83;;;0.83;;
3767;SDS011;1899;49.966;7.106;2024-03-29T13:55:09;3.77;;;0.90;;
3767;SDS011;1899;49.966;7.106;2024-03-29T13:57:35;2.80;;;0.93;;
3767;SDS011;1899;49.966;7.106;2024-03-29T14:00:00;3.27;;;1.30;;
3767;SDS011;1899;49.966;7.106;2024-03-29T14:02:29;2.83;;;0.70;;
3767;SDS011;1899;49.966;7.106;2024-03-29T14:04:55;2.80;;;0.70;;
3767;SDS011;1899;49.966;7.106;2024-03-29T14:07:20;3.57;;;0.73;;
3767;SDS011;1899;49.966;7.106;2024-03-29T14:09:46;3.87;;;0.83;;
3767;SDS011;1899;49.966;7.106;2024-03-29T14:12:12;3.50;;;0.80;;
3767;SDS011;1899;49.966;7.106;2024-03-29T14:14:38;2.67;;;0.70;;
3767;SDS011;1899;49.966;7.106;2024-03-29T14:17:03;2.63;;;0.73;;
3767;SDS011;1899;49.966;7.106;2024-03-29T14:19:31;3.17;;;0.70;;
3767;SDS011;1899;49.966;7.106;2024-03-29T14:21:59;2.60;;;0.70;;
3767;SDS011;1899;49.966;7.106;2024-03-29T14:24:24;2.50;;;0.80;;
3767;SDS011;1899;49.966;7.106;2024-03-29T14:26:50;3.13;;;0.80;;
3767;SDS011;1899;49.966;7.106;2024-03-29T14:29:15;2.50;;;0.67;;
3767;SDS011;1899;49.966;7.106;2024-03-29T14:31:43;2.47;;;0.70;;
3767;SDS011;1899;49.966;7.106;2024-03-29T14:34:10;2.70;;;0.90;;
3767;SDS011;1899;49.966;7.106;2024-03-29T14:36:35;3.17;;;0.70;;
3767;SDS011;1899;49.966;7.106;2024-03-29T14:39:00;3.67;;;0.83;;
3767;SDS011;1899;49.966;7.106;2024-03-29T14:41:26;2.73;;;0.70;;
3767;SDS011;1899;49.966;7.106;2024-03-29T14:43:52;3.07;;;0.90;;
3767;SDS011;1899;49.966;7.106;2024-03-29T14:46:17;4.93;;;0.70;;
3767;SDS011;1899;49.966;7.106;2024-03-29T14:48:43;2.67;;;0.80;;
3767;SDS011;1899;49.966;7.106;2024-03-29T14:51:08;3.30;;;1.00;;
3767;SDS011;1899;49.966;7.106;2024-03-29T14:53:34;3.37;;;1.43;;
3767;SDS011;1899;49.966;7.106;2024-03-29T14:55:59;3.57;;;0.90;;
3767;SDS011;1899;49.966;7.106;2024-03-29T14:58:27;3.23;;;1.10;;
3767;SDS011;1899;49.966;7.106;2024-03-29T15:00:52;3.07;;;0.80;;
3767;SDS011;1899;49.966;7.106;2024-03-29T15:03:18;4.67;;;0.90;;
3767;SDS011;1899;49.966;7.106;2024-03-29T15:05:44;4.20;;;0.90;;
3767;SDS011;1899;49.966;7.106;2024-03-29T15:08:09;3.57;;;0.90;;
3767;SDS011;1899;49.966;7.106;2024-03-29T15:10:41;2.47;;;0.80;;
3767;SDS011;1899;49.966;7.106;2024-03-29T15:13:07;4.23;;;0.87;;
3767;SDS011;1899;49.966;7.106;2024-03-29T15:15:32;3.63;;;0.90;;
3767;SDS011;1899;49.966;7.106;2024-03-29T15:18:00;3.27;;;0.90;;